sensor_id;sensor_type;location;lat;lon;timestamp;P1;durP1;ratioP1;P2;durP2;ratioP2
23728;SDS011;12045;60.214;24.724;2022-10-31T00:01:22;5.15;;;1.25;;
23728;SDS011;12045;60.214;24.724;2022-10-31T00:03:52;6.50;;;1.20;;
23728;SDS011;12045;60.214;24.724;2022-10-31T00:06:20;6.15;;;1.40;;
23728;SDS011;12045;60.214;24.724;2022-10-31T00:08:52;4.82;;;0.98;;
23728;SDS011;12045;60.214;24.724;2022-10-31T00:11:27;4.82;;;1.08;;
23728;SDS011;12045;60.214;24.724;2022-10-31T00:13:56;3.40;;;1.15;;
23728;SDS011;12045;60.214;24.724;2022-10-31T00:16:24;3.20;;;0.95;;
23728;SDS011;12045;60.214;24.724;2022-10-31T00:18:57;6.32;;;1.25;;
23728;SDS011;12045;60.214;24.724;2022-10-31T00:21:27;2.17;;;1.10;;
23728;SDS011;12045;60.214;24.724;2022-10-31T00:23:56;2.97;;;1.00;;
23728;SDS011;12045;60.214;24.724;2022-10-31T00:26:26;3.38;;;1.30;;
23728;SDS011;12045;60.214;24.724;2022-10-31T00:28:54;4.03;;;0.90;;
23728;SDS011;12045;60.214;24.724;2022-10-31T00:31:22;0.95;;;0.82;;
23728;SDS011;12045;60.214;24.724;2022-10-31T00:33:50;2.25;;;1.05;;
23728;SDS011;12045;60.214;24.724;2022-10-31T00:36:18;3.72;;;1.20;;
23728;SDS011;12045;60.214;24.724;2022-10-31T00:38:46;4.65;;;0.93;;
23728;SDS011;12045;60.214;24.724;2022-10-31T00:41:15;4.22;;;0.90;;
23728;SDS011;12045;60.214;24.724;2022-10-31T00:43:44;2.53;;;1.00;;
23728;SDS011;12045;60.214;24.724;2022-10-31T00:46:12;7.03;;;1.38;;
23728;SDS011;12045;60.214;24.724;2022-10-31T00:48:40;5.55;;;1.40;;
23728;SDS011;12045;60.214;24.724;2022-10-31T00:51:08;7.07;;;1.35;;
23728;SDS011;12045;60.214;24.724;2022-10-31T00:53:36;2.70;;;1.20;;
23728;SDS011;12045;60.214;24.724;2022-10-31T00:56:04;4.35;;;1.35;;
23728;SDS011;12045;60.214;24.724;2022-10-31T00:58:32;4.35;;;1.25;;
23728;SDS011;12045;60.214;24.724;2022-10-31T01:01:00;5.20;;;1.60;;
23728;SDS011;12045;60.214;24.724;2022-10-31T01:03:28;3.60;;;1.02;;
23728;SDS011;12045;60.214;24.724;2022-10-31T01:06:05;4.68;;;1.08;;
23728;SDS011;12045;60.214;24.724;2022-10-31T01:08:34;6.10;;;1.10;;
23728;SDS011;12045;60.214;24.724;2022-10-31T01:13:41;2.25;;;1.05;;
23728;SDS011;12045;60.214;24.724;2022-10-31T01:16:11;3.55;;;1.00;;
23728;SDS011;12045;60.214;24.724;2022-10-31T01:18:40;7.43;;;1.13;;
23728;SDS011;12045;60.214;24.724;2022-10-31T01:21:12;6.00;;;1.33;;
23728;SDS011;12045;60.214;24.724;2022-10-31T01:23:42;2.83;;;1.33;;
23728;SDS011;12045;60.214;24.724;2022-10-31T01:28:50;5.03;;;1.10;;
23728;SDS011;12045;60.214;24.724;2022-10-31T01:31:20;5.78;;;1.10;;
23728;SDS011;12045;60.214;24.724;2022-10-31T01:33:50;3.47;;;1.03;;
23728;SDS011;12045;60.214;24.724;2022-10-31T01:36:20;2.47;;;0.90;;
23728;SDS011;12045;60.214;24.724;2022-10-31T01:38:49;0.63;;;0.60;;
23728;SDS011;12045;60.214;24.724;2022-10-31T01:41:19;2.63;;;0.90;;
23728;SDS011;12045;60.214;24.724;2022-10-31T01:43:56;3.30;;;1.00;;
23728;SDS011;12045;60.214;24.724;2022-10-31T01:46:26;4.47;;;0.93;;
23728;SDS011;12045;60.214;24.724;2022-10-31T01:49:00;1.83;;;0.80;;
23728;SDS011;12045;60.214;24.724;2022-10-31T01:51:33;3.57;;;1.07;;
23728;SDS011;12045;60.214;24.724;2022-10-31T01:54:06;4.23;;;1.33;;
23728;SDS011;12045;60.214;24.724;2022-10-31T01:56:37;4.73;;;1.10;;
23728;SDS011;12045;60.214;24.724;2022-10-31T01:59:09;5.83;;;1.07;;
23728;SDS011;12045;60.214;24.724;2022-10-31T02:01:39;5.50;;;1.10;;
23728;SDS011;12045;60.214;24.724;2022-10-31T02:04:07;5.63;;;1.20;;
23728;SDS011;12045;60.214;24.724;2022-10-31T02:09:09;6.23;;;1.27;;
23728;SDS011;12045;60.214;24.724;2022-10-31T02:11:39;3.53;;;1.47;;
23728;SDS011;12045;60.214;24.724;2022-10-31T02:14:07;8.00;;;1.30;;
23728;SDS011;12045;60.214;24.724;2022-10-31T02:16:35;4.27;;;1.10;;
23728;SDS011;12045;60.214;24.724;2022-10-31T02:19:03;3.90;;;1.27;;
23728;SDS011;12045;60.214;24.724;2022-10-31T02:21:41;10.20;;;1.43;;
23728;SDS011;12045;60.214;24.724;2022-10-31T02:30:24;4.07;;;1.30;;
23728;SDS011;12045;60.214;24.724;2022-10-31T02:35:58;4.93;;;1.30;;
23728;SDS011;12045;60.214;24.724;2022-10-31T02:41:43;7.00;;;1.30;;
23728;SDS011;12045;60.214;24.724;2022-10-31T02:47:25;2.37;;;1.17;;
23728;SDS011;12045;60.214;24.724;2022-10-31T02:50:13;7.33;;;1.13;;
23728;SDS011;12045;60.214;24.724;2022-10-31T02:52:51;1.83;;;1.00;;
23728;SDS011;12045;60.214;24.724;2022-10-31T02:57:56;2.80;;;1.20;;
23728;SDS011;12045;60.214;24.724;2022-10-31T03:00:35;5.23;;;1.40;;
23728;SDS011;12045;60.214;24.724;2022-10-31T03:03:26;6.40;;;1.23;;
23728;SDS011;12045;60.214;24.724;2022-10-31T03:08:45;7.70;;;1.20;;
23728;SDS011;12045;60.214;24.724;2022-10-31T03:11:23;5.73;;;1.30;;
23728;SDS011;12045;60.214;24.724;2022-10-31T03:16:47;6.50;;;1.33;;
23728;SDS011;12045;60.214;24.724;2022-10-31T03:19:18;5.97;;;1.60;;
23728;SDS011;12045;60.214;24.724;2022-10-31T03:21:56;3.40;;;1.10;;
23728;SDS011;12045;60.214;24.724;2022-10-31T03:24:32;4.77;;;1.40;;
23728;SDS011;12045;60.214;24.724;2022-10-31T03:27:04;2.20;;;1.10;;
23728;SDS011;12045;60.214;24.724;2022-10-31T03:29:34;4.73;;;1.10;;
23728;SDS011;12045;60.214;24.724;2022-10-31T03:32:06;6.00;;;1.30;;
23728;SDS011;12045;60.214;24.724;2022-10-31T03:34:43;5.83;;;1.50;;
23728;SDS011;12045;60.214;24.724;2022-10-31T03:37:13;5.40;;;1.10;;
23728;SDS011;12045;60.214;24.724;2022-10-31T03:39:44;4.10;;;1.27;;
23728;SDS011;12045;60.214;24.724;2022-10-31T03:42:18;2.67;;;1.30;;
23728;SDS011;12045;60.214;24.724;2022-10-31T03:44:52;8.27;;;1.40;;
23728;SDS011;12045;60.214;24.724;2022-10-31T03:47:24;3.23;;;1.13;;
23728;SDS011;12045;60.214;24.724;2022-10-31T03:49:52;7.03;;;1.30;;
23728;SDS011;12045;60.214;24.724;2022-10-31T03:52:35;4.07;;;1.30;;
23728;SDS011;12045;60.214;24.724;2022-10-31T03:55:19;6.60;;;1.40;;
23728;SDS011;12045;60.214;24.724;2022-10-31T03:57:56;5.83;;;1.40;;
23728;SDS011;12045;60.214;24.724;2022-10-31T04:00:43;3.80;;;1.10;;
23728;SDS011;12045;60.214;24.724;2022-10-31T04:03:14;4.37;;;1.40;;
23728;SDS011;12045;60.214;24.724;2022-10-31T04:05:46;6.13;;;1.70;;
23728;SDS011;12045;60.214;24.724;2022-10-31T04:08:17;5.00;;;1.20;;
23728;SDS011;12045;60.214;24.724;2022-10-31T04:10:48;9.10;;;1.53;;
23728;SDS011;12045;60.214;24.724;2022-10-31T04:13:20;5.17;;;1.30;;
23728;SDS011;12045;60.214;24.724;2022-10-31T04:15:51;6.23;;;1.60;;
23728;SDS011;12045;60.214;24.724;2022-10-31T04:18:24;6.37;;;1.40;;
23728;SDS011;12045;60.214;24.724;2022-10-31T04:20:59;2.67;;;1.30;;
23728;SDS011;12045;60.214;24.724;2022-10-31T04:23:29;2.27;;;1.27;;
23728;SDS011;12045;60.214;24.724;2022-10-31T04:25:57;7.93;;;1.40;;
23728;SDS011;12045;60.214;24.724;2022-10-31T04:28:24;4.33;;;0.90;;
23728;SDS011;12045;60.214;24.724;2022-10-31T04:30:53;3.30;;;0.93;;
23728;SDS011;12045;60.214;24.724;2022-10-31T04:33:21;7.43;;;1.30;;
23728;SDS011;12045;60.214;24.724;2022-10-31T04:35:48;0.50;;;0.50;;
23728;SDS011;12045;60.214;24.724;2022-10-31T04:38:16;1.90;;;0.80;;
23728;SDS011;12045;60.214;24.724;2022-10-31T04:40:44;0.80;;;0.73;;
23728;SDS011;12045;60.214;24.724;2022-10-31T04:43:12;4.90;;;1.50;;
23728;SDS011;12045;60.214;24.724;2022-10-31T04:45:39;5.00;;;1.70;;
23728;SDS011;12045;60.214;24.724;2022-10-31T04:48:07;5.37;;;1.53;;
23728;SDS011;12045;60.214;24.724;2022-10-31T04:50:34;3.80;;;1.40;;
23728;SDS011;12045;60.214;24.724;2022-10-31T04:53:02;7.33;;;1.63;;
23728;SDS011;12045;60.214;24.724;2022-10-31T04:55:29;4.77;;;1.23;;
23728;SDS011;12045;60.214;24.724;2022-10-31T04:57:57;5.10;;;1.50;;
23728;SDS011;12045;60.214;24.724;2022-10-31T05:00:25;6.40;;;1.50;;
23728;SDS011;12045;60.214;24.724;2022-10-31T05:02:56;2.67;;;1.50;;
23728;SDS011;12045;60.214;24.724;2022-10-31T05:05:31;8.37;;;1.73;;
23728;SDS011;12045;60.214;24.724;2022-10-31T05:07:58;7.00;;;1.47;;
23728;SDS011;12045;60.214;24.724;2022-10-31T05:10:27;3.83;;;1.70;;
23728;SDS011;12045;60.214;24.724;2022-10-31T05:12:59;6.47;;;1.87;;
23728;SDS011;12045;60.214;24.724;2022-10-31T05:15:28;10.17;;;1.57;;
23728;SDS011;12045;60.214;24.724;2022-10-31T05:17:56;5.93;;;1.50;;
23728;SDS011;12045;60.214;24.724;2022-10-31T05:20:25;3.47;;;1.50;;
23728;SDS011;12045;60.214;24.724;2022-10-31T05:22:55;8.00;;;1.83;;
23728;SDS011;12045;60.214;24.724;2022-10-31T05:25:24;5.40;;;1.57;;
23728;SDS011;12045;60.214;24.724;2022-10-31T05:27:54;6.60;;;1.40;;
23728;SDS011;12045;60.214;24.724;2022-10-31T05:30:23;3.87;;;1.43;;
23728;SDS011;12045;60.214;24.724;2022-10-31T05:32:53;9.50;;;1.60;;
23728;SDS011;12045;60.214;24.724;2022-10-31T05:35:23;5.53;;;2.00;;
23728;SDS011;12045;60.214;24.724;2022-10-31T05:37:53;6.10;;;2.00;;
23728;SDS011;12045;60.214;24.724;2022-10-31T05:40:21;4.50;;;1.60;;
23728;SDS011;12045;60.214;24.724;2022-10-31T05:42:52;8.27;;;2.17;;
23728;SDS011;12045;60.214;24.724;2022-10-31T05:45:21;7.27;;;1.80;;
23728;SDS011;12045;60.214;24.724;2022-10-31T05:47:59;7.13;;;1.80;;
23728;SDS011;12045;60.214;24.724;2022-10-31T05:50:29;9.70;;;1.70;;
23728;SDS011;12045;60.214;24.724;2022-10-31T05:53:01;5.60;;;1.67;;
23728;SDS011;12045;60.214;24.724;2022-10-31T05:55:30;4.93;;;1.70;;
23728;SDS011;12045;60.214;24.724;2022-10-31T05:57:59;9.60;;;1.70;;
23728;SDS011;12045;60.214;24.724;2022-10-31T06:00:27;3.93;;;1.87;;
23728;SDS011;12045;60.214;24.724;2022-10-31T06:02:59;5.27;;;1.80;;
23728;SDS011;12045;60.214;24.724;2022-10-31T06:05:32;7.43;;;1.97;;
23728;SDS011;12045;60.214;24.724;2022-10-31T06:08:00;5.43;;;1.80;;
23728;SDS011;12045;60.214;24.724;2022-10-31T06:10:29;5.03;;;1.67;;
23728;SDS011;12045;60.214;24.724;2022-10-31T06:13:09;8.20;;;2.17;;
23728;SDS011;12045;60.214;24.724;2022-10-31T06:15:48;11.10;;;2.93;;
23728;SDS011;12045;60.214;24.724;2022-10-31T06:18:21;6.63;;;2.13;;
23728;SDS011;12045;60.214;24.724;2022-10-31T06:20:49;4.23;;;1.97;;
23728;SDS011;12045;60.214;24.724;2022-10-31T06:23:22;7.50;;;2.60;;
23728;SDS011;12045;60.214;24.724;2022-10-31T06:25:51;6.43;;;2.10;;
23728;SDS011;12045;60.214;24.724;2022-10-31T06:28:19;5.10;;;2.10;;
23728;SDS011;12045;60.214;24.724;2022-10-31T06:30:50;5.50;;;2.20;;
23728;SDS011;12045;60.214;24.724;2022-10-31T06:33:18;7.17;;;2.03;;
23728;SDS011;12045;60.214;24.724;2022-10-31T06:35:46;5.47;;;1.93;;
23728;SDS011;12045;60.214;24.724;2022-10-31T06:38:17;6.10;;;2.27;;
23728;SDS011;12045;60.214;24.724;2022-10-31T06:40:47;5.33;;;2.20;;
23728;SDS011;12045;60.214;24.724;2022-10-31T06:43:17;5.73;;;1.80;;
23728;SDS011;12045;60.214;24.724;2022-10-31T06:45:45;4.20;;;2.10;;
23728;SDS011;12045;60.214;24.724;2022-10-31T06:48:15;6.07;;;2.50;;
23728;SDS011;12045;60.214;24.724;2022-10-31T06:50:47;5.40;;;2.00;;
23728;SDS011;12045;60.214;24.724;2022-10-31T06:53:27;5.33;;;1.90;;
23728;SDS011;12045;60.214;24.724;2022-10-31T06:55:58;8.63;;;2.67;;
23728;SDS011;12045;60.214;24.724;2022-10-31T06:58:25;4.53;;;2.00;;
23728;SDS011;12045;60.214;24.724;2022-10-31T07:00:54;5.93;;;2.40;;
23728;SDS011;12045;60.214;24.724;2022-10-31T07:03:22;7.57;;;2.43;;
23728;SDS011;12045;60.214;24.724;2022-10-31T07:05:50;7.50;;;2.73;;
23728;SDS011;12045;60.214;24.724;2022-10-31T07:08:19;10.70;;;3.20;;
23728;SDS011;12045;60.214;24.724;2022-10-31T07:10:50;9.53;;;2.43;;
23728;SDS011;12045;60.214;24.724;2022-10-31T07:13:26;5.83;;;2.63;;
23728;SDS011;12045;60.214;24.724;2022-10-31T07:15:55;8.23;;;3.17;;
23728;SDS011;12045;60.214;24.724;2022-10-31T07:18:26;15.63;;;4.75;;
23728;SDS011;12045;60.214;24.724;2022-10-31T07:21:00;8.30;;;3.23;;
23728;SDS011;12045;60.214;24.724;2022-10-31T07:23:29;7.88;;;3.50;;
23728;SDS011;12045;60.214;24.724;2022-10-31T07:26:02;7.23;;;2.27;;
23728;SDS011;12045;60.214;24.724;2022-10-31T07:28:35;5.68;;;2.30;;
23728;SDS011;12045;60.214;24.724;2022-10-31T07:31:05;7.85;;;2.30;;
23728;SDS011;12045;60.214;24.724;2022-10-31T07:33:47;9.63;;;2.80;;
23728;SDS011;12045;60.214;24.724;2022-10-31T07:36:19;12.40;;;3.03;;
23728;SDS011;12045;60.214;24.724;2022-10-31T07:38:49;10.93;;;4.10;;
23728;SDS011;12045;60.214;24.724;2022-10-31T07:41:20;7.90;;;3.65;;
23728;SDS011;12045;60.214;24.724;2022-10-31T07:43:54;6.80;;;3.83;;
23728;SDS011;12045;60.214;24.724;2022-10-31T07:46:25;11.45;;;3.78;;
23728;SDS011;12045;60.214;24.724;2022-10-31T07:49:14;6.35;;;2.50;;
23728;SDS011;12045;60.214;24.724;2022-10-31T07:51:55;6.97;;;2.67;;
23728;SDS011;12045;60.214;24.724;2022-10-31T07:54:25;4.90;;;2.60;;
23728;SDS011;12045;60.214;24.724;2022-10-31T07:57:17;6.00;;;1.58;;
23728;SDS011;12045;60.214;24.724;2022-10-31T07:59:50;4.57;;;1.48;;
23728;SDS011;12045;60.214;24.724;2022-10-31T08:02:20;6.80;;;1.60;;
23728;SDS011;12045;60.214;24.724;2022-10-31T08:04:58;3.35;;;1.60;;
23728;SDS011;12045;60.214;24.724;2022-10-31T08:07:38;2.38;;;1.80;;
23728;SDS011;12045;60.214;24.724;2022-10-31T08:10:09;5.38;;;1.65;;
23728;SDS011;12045;60.214;24.724;2022-10-31T08:13:06;5.30;;;1.85;;
23728;SDS011;12045;60.214;24.724;2022-10-31T08:15:43;6.40;;;1.70;;
23728;SDS011;12045;60.214;24.724;2022-10-31T08:18:18;5.32;;;1.70;;
23728;SDS011;12045;60.214;24.724;2022-10-31T08:20:49;8.85;;;2.20;;
23728;SDS011;12045;60.214;24.724;2022-10-31T08:23:33;8.40;;;2.03;;
23728;SDS011;12045;60.214;24.724;2022-10-31T08:26:05;6.00;;;2.13;;
23728;SDS011;12045;60.214;24.724;2022-10-31T08:28:39;3.85;;;1.88;;
23728;SDS011;12045;60.214;24.724;2022-10-31T08:31:16;5.90;;;1.98;;
23728;SDS011;12045;60.214;24.724;2022-10-31T08:33:59;3.95;;;2.08;;
23728;SDS011;12045;60.214;24.724;2022-10-31T08:36:29;4.88;;;1.95;;
23728;SDS011;12045;60.214;24.724;2022-10-31T08:39:14;8.68;;;2.15;;
23728;SDS011;12045;60.214;24.724;2022-10-31T08:41:47;7.68;;;2.10;;
23728;SDS011;12045;60.214;24.724;2022-10-31T08:44:25;8.20;;;2.22;;
23728;SDS011;12045;60.214;24.724;2022-10-31T08:50:28;9.20;;;2.75;;
23728;SDS011;12045;60.214;24.724;2022-10-31T08:53:17;5.70;;;2.10;;
23728;SDS011;12045;60.214;24.724;2022-10-31T08:59:23;6.90;;;2.30;;
23728;SDS011;12045;60.214;24.724;2022-10-31T09:02:05;6.45;;;2.20;;
23728;SDS011;12045;60.214;24.724;2022-10-31T09:04:38;5.30;;;2.40;;
23728;SDS011;12045;60.214;24.724;2022-10-31T09:07:15;5.85;;;2.35;;
23728;SDS011;12045;60.214;24.724;2022-10-31T09:09:47;5.90;;;2.67;;
23728;SDS011;12045;60.214;24.724;2022-10-31T09:12:15;10.23;;;2.70;;
23728;SDS011;12045;60.214;24.724;2022-10-31T09:14:46;4.03;;;1.70;;
23728;SDS011;12045;60.214;24.724;2022-10-31T09:17:25;4.28;;;1.50;;
23728;SDS011;12045;60.214;24.724;2022-10-31T09:20:06;5.45;;;1.70;;
23728;SDS011;12045;60.214;24.724;2022-10-31T09:23:00;8.00;;;1.73;;
23728;SDS011;12045;60.214;24.724;2022-10-31T09:26:02;5.95;;;1.52;;
23728;SDS011;12045;60.214;24.724;2022-10-31T09:28:40;5.28;;;1.58;;
23728;SDS011;12045;60.214;24.724;2022-10-31T09:31:14;7.10;;;1.52;;
23728;SDS011;12045;60.214;24.724;2022-10-31T09:33:46;6.00;;;1.83;;
23728;SDS011;12045;60.214;24.724;2022-10-31T09:36:14;9.63;;;1.90;;
23728;SDS011;12045;60.214;24.724;2022-10-31T09:38:42;7.07;;;2.08;;
23728;SDS011;12045;60.214;24.724;2022-10-31T09:41:19;4.57;;;1.60;;
23728;SDS011;12045;60.214;24.724;2022-10-31T09:49:37;5.75;;;1.27;;
23728;SDS011;12045;60.214;24.724;2022-10-31T09:52:30;4.13;;;1.30;;
23728;SDS011;12045;60.214;24.724;2022-10-31T09:55:08;5.15;;;1.60;;
23728;SDS011;12045;60.214;24.724;2022-10-31T09:57:45;4.95;;;1.38;;
23728;SDS011;12045;60.214;24.724;2022-10-31T10:00:17;4.10;;;1.60;;
23728;SDS011;12045;60.214;24.724;2022-10-31T10:05:32;5.35;;;1.30;;
23728;SDS011;12045;60.214;24.724;2022-10-31T10:27:26;6.68;;;1.40;;
23728;SDS011;12045;60.214;24.724;2022-10-31T10:30:13;6.45;;;1.35;;
23728;SDS011;12045;60.214;24.724;2022-10-31T10:32:48;6.20;;;1.40;;
23728;SDS011;12045;60.214;24.724;2022-10-31T10:38:44;4.72;;;1.30;;
23728;SDS011;12045;60.214;24.724;2022-10-31T10:41:12;7.40;;;1.33;;
23728;SDS011;12045;60.214;24.724;2022-10-31T10:43:48;6.90;;;1.38;;
23728;SDS011;12045;60.214;24.724;2022-10-31T10:55:05;4.20;;;1.00;;
23728;SDS011;12045;60.214;24.724;2022-10-31T11:01:31;2.30;;;0.95;;
23728;SDS011;12045;60.214;24.724;2022-10-31T11:04:02;1.90;;;1.02;;
23728;SDS011;12045;60.214;24.724;2022-10-31T11:07:04;5.80;;;1.25;;
23728;SDS011;12045;60.214;24.724;2022-10-31T11:09:42;6.45;;;1.40;;
23728;SDS011;12045;60.214;24.724;2022-10-31T11:23:19;4.55;;;1.40;;
23728;SDS011;12045;60.214;24.724;2022-10-31T11:26:02;4.75;;;1.17;;
23728;SDS011;12045;60.214;24.724;2022-10-31T11:28:33;6.47;;;1.42;;
23728;SDS011;12045;60.214;24.724;2022-10-31T11:31:07;5.13;;;1.20;;
23728;SDS011;12045;60.214;24.724;2022-10-31T11:33:44;4.10;;;1.33;;
23728;SDS011;12045;60.214;24.724;2022-10-31T11:36:16;2.72;;;1.10;;
23728;SDS011;12045;60.214;24.724;2022-10-31T11:38:51;5.30;;;1.20;;
23728;SDS011;12045;60.214;24.724;2022-10-31T11:44:12;7.10;;;1.08;;
23728;SDS011;12045;60.214;24.724;2022-10-31T11:46:41;6.20;;;1.30;;
23728;SDS011;12045;60.214;24.724;2022-10-31T11:49:37;4.32;;;1.23;;
23728;SDS011;12045;60.214;24.724;2022-10-31T11:52:16;4.07;;;1.13;;
23728;SDS011;12045;60.214;24.724;2022-10-31T11:57:22;4.25;;;1.35;;
23728;SDS011;12045;60.214;24.724;2022-10-31T12:00:02;8.27;;;1.23;;
23728;SDS011;12045;60.214;24.724;2022-10-31T12:02:35;8.48;;;1.63;;
23728;SDS011;12045;60.214;24.724;2022-10-31T12:07:49;6.43;;;1.25;;
23728;SDS011;12045;60.214;24.724;2022-10-31T12:19:36;3.72;;;1.00;;
23728;SDS011;12045;60.214;24.724;2022-10-31T12:22:45;4.68;;;1.10;;
23728;SDS011;12045;60.214;24.724;2022-10-31T12:28:28;6.93;;;1.00;;
23728;SDS011;12045;60.214;24.724;2022-10-31T12:32:08;4.47;;;0.98;;
23728;SDS011;12045;60.214;24.724;2022-10-31T12:53:55;7.53;;;1.55;;
23728;SDS011;12045;60.214;24.724;2022-10-31T12:56:58;4.35;;;1.00;;
23728;SDS011;12045;60.214;24.724;2022-10-31T12:59:35;5.15;;;1.00;;
23728;SDS011;12045;60.214;24.724;2022-10-31T13:04:53;5.45;;;1.10;;
23728;SDS011;12045;60.214;24.724;2022-10-31T13:07:36;5.80;;;1.10;;
23728;SDS011;12045;60.214;24.724;2022-10-31T13:10:15;3.90;;;1.20;;
23728;SDS011;12045;60.214;24.724;2022-10-31T13:12:46;7.13;;;1.25;;
23728;SDS011;12045;60.214;24.724;2022-10-31T13:15:24;8.52;;;1.55;;
23728;SDS011;12045;60.214;24.724;2022-10-31T13:17:58;7.60;;;1.30;;
23728;SDS011;12045;60.214;24.724;2022-10-31T13:20:32;3.78;;;1.30;;
23728;SDS011;12045;60.214;24.724;2022-10-31T13:23:24;5.22;;;1.23;;
23728;SDS011;12045;60.214;24.724;2022-10-31T13:26:19;6.50;;;1.20;;
23728;SDS011;12045;60.214;24.724;2022-10-31T13:29:05;4.00;;;1.20;;
23728;SDS011;12045;60.214;24.724;2022-10-31T13:31:39;7.35;;;1.42;;
23728;SDS011;12045;60.214;24.724;2022-10-31T13:34:17;5.65;;;1.40;;
23728;SDS011;12045;60.214;24.724;2022-10-31T13:36:48;5.35;;;1.08;;
23728;SDS011;12045;60.214;24.724;2022-10-31T13:39:39;6.57;;;1.33;;
23728;SDS011;12045;60.214;24.724;2022-10-31T13:45:22;5.35;;;1.23;;
23728;SDS011;12045;60.214;24.724;2022-10-31T13:48:35;5.90;;;1.42;;
23728;SDS011;12045;60.214;24.724;2022-10-31T13:50:42;6.82;;;1.92;;
23728;SDS011;12045;60.214;24.724;2022-10-31T13:53:34;5.43;;;1.30;;
23728;SDS011;12045;60.214;24.724;2022-10-31T13:59:05;4.32;;;1.40;;
23728;SDS011;12045;60.214;24.724;2022-10-31T14:01:48;5.03;;;1.30;;
23728;SDS011;12045;60.214;24.724;2022-10-31T14:04:38;2.47;;;1.00;;
23728;SDS011;12045;60.214;24.724;2022-10-31T14:07:13;3.15;;;1.15;;
23728;SDS011;12045;60.214;24.724;2022-10-31T14:14:54;7.82;;;1.40;;
23728;SDS011;12045;60.214;24.724;2022-10-31T14:17:27;4.07;;;1.15;;
23728;SDS011;12045;60.214;24.724;2022-10-31T14:22:36;5.13;;;1.00;;
23728;SDS011;12045;60.214;24.724;2022-10-31T14:28:00;2.63;;;1.13;;
23728;SDS011;12045;60.214;24.724;2022-10-31T14:30:30;4.22;;;1.20;;
23728;SDS011;12045;60.214;24.724;2022-10-31T14:32:59;5.22;;;1.40;;
23728;SDS011;12045;60.214;24.724;2022-10-31T14:35:51;6.13;;;1.38;;
23728;SDS011;12045;60.214;24.724;2022-10-31T14:49:18;4.85;;;1.33;;
23728;SDS011;12045;60.214;24.724;2022-10-31T14:51:51;4.10;;;1.45;;
23728;SDS011;12045;60.214;24.724;2022-10-31T14:54:30;3.15;;;1.40;;
23728;SDS011;12045;60.214;24.724;2022-10-31T14:57:03;4.78;;;1.52;;
23728;SDS011;12045;60.214;24.724;2022-10-31T14:59:36;4.50;;;1.80;;
23728;SDS011;12045;60.214;24.724;2022-10-31T15:02:52;5.20;;;2.88;;
23728;SDS011;12045;60.214;24.724;2022-10-31T15:05:32;3.75;;;1.60;;
23728;SDS011;12045;60.214;24.724;2022-10-31T15:08:02;3.42;;;1.77;;
23728;SDS011;12045;60.214;24.724;2022-10-31T15:10:31;5.65;;;1.92;;
23728;SDS011;12045;60.214;24.724;2022-10-31T15:13:19;4.65;;;1.70;;
23728;SDS011;12045;60.214;24.724;2022-10-31T15:15:52;4.85;;;1.90;;
23728;SDS011;12045;60.214;24.724;2022-10-31T15:18:25;4.13;;;2.00;;
23728;SDS011;12045;60.214;24.724;2022-10-31T15:20:55;6.72;;;2.20;;
23728;SDS011;12045;60.214;24.724;2022-10-31T15:23:27;6.20;;;2.10;;
23728;SDS011;12045;60.214;24.724;2022-10-31T15:25:59;5.85;;;2.08;;
23728;SDS011;12045;60.214;24.724;2022-10-31T15:28:28;9.90;;;2.28;;
23728;SDS011;12045;60.214;24.724;2022-10-31T15:30:58;3.72;;;2.15;;
23728;SDS011;12045;60.214;24.724;2022-10-31T15:33:28;6.55;;;2.20;;
23728;SDS011;12045;60.214;24.724;2022-10-31T15:36:04;7.50;;;2.25;;
23728;SDS011;12045;60.214;24.724;2022-10-31T15:38:32;3.33;;;2.03;;
23728;SDS011;12045;60.214;24.724;2022-10-31T15:41:06;7.13;;;2.50;;
23728;SDS011;12045;60.214;24.724;2022-10-31T15:44:23;10.68;;;2.30;;
23728;SDS011;12045;60.214;24.724;2022-10-31T15:46:58;6.22;;;2.50;;
23728;SDS011;12045;60.214;24.724;2022-10-31T15:49:42;6.35;;;2.83;;
23728;SDS011;12045;60.214;24.724;2022-10-31T15:52:17;6.50;;;2.78;;
23728;SDS011;12045;60.214;24.724;2022-10-31T15:57:55;5.80;;;3.00;;
23728;SDS011;12045;60.214;24.724;2022-10-31T16:00:26;7.07;;;3.10;;
23728;SDS011;12045;60.214;24.724;2022-10-31T16:03:04;5.55;;;2.92;;
23728;SDS011;12045;60.214;24.724;2022-10-31T16:05:38;10.38;;;3.15;;
23728;SDS011;12045;60.214;24.724;2022-10-31T16:08:23;4.80;;;2.55;;
23728;SDS011;12045;60.214;24.724;2022-10-31T16:10:58;4.32;;;2.13;;
23728;SDS011;12045;60.214;24.724;2022-10-31T16:13:27;6.80;;;2.80;;
23728;SDS011;12045;60.214;24.724;2022-10-31T16:16:00;7.15;;;2.60;;
23728;SDS011;12045;60.214;24.724;2022-10-31T16:18:49;5.65;;;2.42;;
23728;SDS011;12045;60.214;24.724;2022-10-31T16:21:37;6.53;;;2.50;;
23728;SDS011;12045;60.214;24.724;2022-10-31T16:26:46;5.97;;;2.55;;
23728;SDS011;12045;60.214;24.724;2022-10-31T16:32:01;4.60;;;2.30;;
23728;SDS011;12045;60.214;24.724;2022-10-31T16:34:28;4.35;;;2.45;;
23728;SDS011;12045;60.214;24.724;2022-10-31T16:36:56;5.80;;;2.70;;
23728;SDS011;12045;60.214;24.724;2022-10-31T16:39:23;5.10;;;2.55;;
23728;SDS011;12045;60.214;24.724;2022-10-31T16:41:51;4.22;;;2.38;;
23728;SDS011;12045;60.214;24.724;2022-10-31T16:44:25;5.05;;;2.40;;
23728;SDS011;12045;60.214;24.724;2022-10-31T16:49:33;8.98;;;2.80;;
23728;SDS011;12045;60.214;24.724;2022-10-31T16:52:00;10.27;;;2.90;;
23728;SDS011;12045;60.214;24.724;2022-10-31T16:54:28;7.45;;;2.53;;
23728;SDS011;12045;60.214;24.724;2022-10-31T16:56:57;7.65;;;2.83;;
23728;SDS011;12045;60.214;24.724;2022-10-31T16:59:26;5.65;;;2.45;;
23728;SDS011;12045;60.214;24.724;2022-10-31T17:01:54;5.03;;;2.38;;
23728;SDS011;12045;60.214;24.724;2022-10-31T17:04:22;9.80;;;2.38;;
23728;SDS011;12045;60.214;24.724;2022-10-31T17:06:50;6.55;;;2.20;;
23728;SDS011;12045;60.214;24.724;2022-10-31T17:09:18;7.45;;;2.67;;
23728;SDS011;12045;60.214;24.724;2022-10-31T17:11:46;4.65;;;2.60;;
23728;SDS011;12045;60.214;24.724;2022-10-31T17:14:17;3.83;;;2.20;;
23728;SDS011;12045;60.214;24.724;2022-10-31T17:16:45;6.15;;;2.38;;
23728;SDS011;12045;60.214;24.724;2022-10-31T17:19:13;5.15;;;2.67;;
23728;SDS011;12045;60.214;24.724;2022-10-31T17:21:40;4.47;;;2.38;;
23728;SDS011;12045;60.214;24.724;2022-10-31T17:24:11;5.03;;;2.70;;
23728;SDS011;12045;60.214;24.724;2022-10-31T17:26:41;7.03;;;2.53;;
23728;SDS011;12045;60.214;24.724;2022-10-31T17:29:08;7.25;;;2.55;;
23728;SDS011;12045;60.214;24.724;2022-10-31T17:31:36;6.50;;;2.50;;
23728;SDS011;12045;60.214;24.724;2022-10-31T17:34:05;7.75;;;2.33;;
23728;SDS011;12045;60.214;24.724;2022-10-31T17:36:34;9.57;;;2.75;;
23728;SDS011;12045;60.214;24.724;2022-10-31T17:39:03;8.30;;;2.78;;
23728;SDS011;12045;60.214;24.724;2022-10-31T17:41:33;9.75;;;2.65;;
23728;SDS011;12045;60.214;24.724;2022-10-31T17:44:00;13.43;;;3.50;;
23728;SDS011;12045;60.214;24.724;2022-10-31T17:46:28;17.05;;;3.20;;
23728;SDS011;12045;60.214;24.724;2022-10-31T17:48:56;13.00;;;3.10;;
23728;SDS011;12045;60.214;24.724;2022-10-31T17:51:24;7.65;;;2.90;;
23728;SDS011;12045;60.214;24.724;2022-10-31T17:53:51;9.20;;;2.92;;
23728;SDS011;12045;60.214;24.724;2022-10-31T17:56:18;11.73;;;2.90;;
23728;SDS011;12045;60.214;24.724;2022-10-31T17:58:46;12.45;;;3.15;;
23728;SDS011;12045;60.214;24.724;2022-10-31T18:01:14;12.30;;;3.67;;
23728;SDS011;12045;60.214;24.724;2022-10-31T18:03:44;12.95;;;3.00;;
23728;SDS011;12045;60.214;24.724;2022-10-31T18:06:11;13.60;;;3.72;;